KMOB/MOB METAR and TAF weather

Enter ICAO airport designator
Station Type Date Time Source
KMOB METAR 2020/07/09 23:56 UTC NOAA

KMOB 092356Z 23003KT 10SM SCT041 31/26 A2994 RMK AO2 SLP135 T03060256 10328 20306 53003 $


Station Type Date Time Source
KMOB Decoded METAR 2020/07/09 23:56 UTC NOAA

MOBILE REGIONAL AIRPORT, AL, United States (KMOB) 30-41N 88-14W 67M
Jul 09, 2020 - 07:56 PM EDT / 2020.07.09 2356 UTC
Wind: from the SW (230 degrees) at 3 MPH (3 KT):0
Visibility: 10 mile(s):0
Sky conditions: partly cloudy
Temperature: 87.1 F (30.6 C)
Heat index: 99.9 F (37.7 C):1
Dew Point: 78.1 F (25.6 C)
Relative Humidity: 74%
Pressure (altimeter): 29.94 in. Hg (1013 hPa)
Pressure tendency: 0.01 inches (0.3 hPa) higher than three hours ago
ob: KMOB 092356Z 23003KT 10SM SCT041 31/26 A2994 RMK AO2 SLP135 T03060256 10328 20306 53003
cycle: 0

Station Type Date Time Source
KMOB TAF 2020/07/09 18:39 UTC NOAA

TAF KMOB 091737Z 0918/1018 29005KT P6SM SCT030 SCT100
FM100000 23006KT P6SM FEW060 FEW180
FM100600 VRB03KT P6SM FEW017 FEW250
FM101500 29006KT P6SM SCT035 SCT150

Example: see airport list